This is the latest recevied weather packets stored in our database for station/object p43g-13. If no packets are shown the sender has not sent any weather packets the latest 10 day(s).
| Time | Temp. | Humidity | Pressure | Rain* | Wind** | Luminosity | Snow |
|---|---|---|---|---|---|---|---|
| 1788027055 | 32.78° C | 72% | 1010.3 hPa | 0 mm | - | 917 W/m² | - |
| 1788026755 | 32.22° C | 72% | 1010.3 hPa | 0 mm | - | 1003 W/m² | - |
| 1788026455 | 32.78° C | 71% | 1010.3 hPa | 0 mm | - | 259 W/m² | - |
| 1788026155 | 31.67° C | 74% | 1010.3 hPa | 0 mm | - | 516 W/m² | - |
| 1788025855 | 32.22° C | 73% | 1010.4 hPa | 0 mm | - | 251 W/m² | - |
| 1788025555 | 32.22° C | 73% | 1010.8 hPa | 0 mm | - | 258 W/m² | - |
| 1788025254 | 32.22° C | 73% | 1010.7 hPa | 0 mm | - | 340 W/m² | - |
| 1788024955 | 33.33° C | 70% | 1010.9 hPa | 0 mm | - | 1013 W/m² | - |
| 1788024655 | 32.78° C | 72% | 1010.9 hPa | 0 mm | - | 925 W/m² | - |
| 1788024355 | 32.22° C | 72% | 1010.8 hPa | 0 mm | - | 309 W/m² | - |
| 1788024055 | 32.22° C | 72% | 1011 hPa | 0 mm | - | 454 W/m² | - |
| 1788023755 | 32.78° C | 70% | 1011 hPa | 0 mm | - | 1160 W/m² | - |
| 1788023455 | 32.78° C | 71% | 1011.2 hPa | 0 mm | - | 1079 W/m² | - |
| 1788023155 | 32.78° C | 70% | 1011.2 hPa | 0 mm | - | 1119 W/m² | - |
| 1788022854 | 32.78° C | 70% | 1011.2 hPa | 0 mm | - | 1010 W/m² | - |
| 1788022555 | 32.78° C | 69% | 1011.5 hPa | 0 mm | - | 1078 W/m² | - |
| 1788022255 | 32.78° C | 68% | 1011.3 hPa | 0 mm | - | 1074 W/m² | - |
| 1788021955 | 32.22° C | 71% | 1011.5 hPa | 0 mm | - | 1015 W/m² | - |
| 1788021655 | 32.78° C | 72% | 1011.7 hPa | 0 mm | - | 1109 W/m² | - |
| 1788021355 | 32.22° C | 71% | 1011.6 hPa | 0 mm | - | 1119 W/m² | - |
| 1788021055 | 32.78° C | 70% | 1011.6 hPa | 0 mm | - | 1071 W/m² | - |
| 1788020755 | 32.78° C | 71% | 1011.7 hPa | 0 mm | - | 1052 W/m² | - |
| 1788020455 | 32.22° C | 72% | 1012 hPa | 0 mm | - | 537 W/m² | - |
| 1788020155 | 32.22° C | 71% | 1012 hPa | 0 mm | - | 256 W/m² | - |
| 1788019855 | 32.22° C | 71% | 1012.1 hPa | 0 mm | - | 1124 W/m² | - |
* Rain latest hour (hover to see other rain measurements)
** Current wind speed in m/s (hover to see current wind gust speed)